Time;durP1;ratioP1;P1;durP2;ratioP2;P2;SDS_P1;SDS_P2;PMS_P1;PMS_P2;Temp;Humidity;BMP_temperature;BMP_pressure;BME280_temperature;BME280_humidity;BME280_pressure;Samples;Min_cycle;Max_cycle;Signal;HPM_P1;HPM_P2
2021/03/16 00:00:59;;;;;;;21.57;13.00;;;;;;;2.81;100.00;100252.84;1793359;78;21155;-83
2021/03/16 00:25:06;;;;;;;16.05;9.13;;;;;;;2.88;100.00;100243.53;1792486;80;21477;-84
2021/03/16 00:28:04;;;;;;;18.55;10.95;;;;;;;2.83;100.00;100233.03;1791153;79;21536;-84
2021/03/16 00:34:55;;;;;;;23.25;13.95;;;;;;;2.81;100.00;100232.70;1786470;79;21132;-83
2021/03/16 00:48:55;;;;;;;17.90;12.58;;;;;;;2.70;100.00;100216.52;1773287;81;21109;-83
2021/03/16 00:55:47;;;;;;;20.43;11.93;;;;;;;2.62;100.00;100212.20;1773418;81;21537;-84
2021/03/16 01:02:39;;;;;;;16.85;10.55;;;;;;;2.57;100.00;100209.03;1773426;81;21191;-84
2021/03/16 01:09:32;;;;;;;14.85;10.08;;;;;;;2.56;100.00;100211.22;1805232;79;21207;-83
2021/03/16 01:16:24;;;;;;;14.45;9.40;;;;;;;2.55;100.00;100218.55;1805111;79;21132;-83
2021/03/16 01:22:56;;;;;;;13.98;8.80;;;;;;;2.57;100.00;100221.41;1805178;79;21473;-85
2021/03/16 01:29:47;;;;;;;13.75;10.18;;;;;;;2.57;100.00;100229.12;1773398;81;21148;-84
2021/03/16 01:40:39;;;;;;;18.35;9.48;;;;;;;2.56;100.00;100225.35;1773501;81;21159;-83
2021/03/16 01:43:39;;;;;;;16.93;10.10;;;;;;;2.57;100.00;100232.16;1770661;81;21049;-83
2021/03/16 01:54:06;;;;;;;24.32;13.78;;;;;;;2.49;100.00;100228.22;1773634;81;21191;-83
2021/03/16 02:00:44;;;;;;;21.87;12.18;;;;;;;2.51;100.00;100219.99;1773617;81;20174;-83
2021/03/16 02:17:09;;;;;;;16.30;9.68;;;;;;;2.29;100.00;100233.02;1773454;81;21080;-83
2021/03/16 02:24:10;;;;;;;15.43;9.08;;;;;;;2.13;100.00;100230.31;1773392;81;22147;-83
2021/03/16 02:35:06;;;;;;;15.00;7.97;;;;;;;2.11;100.00;100227.44;1773684;80;21119;-83
2021/03/16 02:46:08;;;;;;;14.10;8.35;;;;;;;1.98;100.00;100216.45;1773470;81;21076;-83
2021/03/16 02:48:56;;;;;;;22.67;8.68;;;;;;;1.93;100.00;100218.84;1773527;80;21168;-83
2021/03/16 02:55:55;;;;;;;20.62;9.35;;;;;;;1.85;100.00;100220.03;1773486;80;21171;-83
2021/03/16 03:11:54;;;;;;;16.97;7.60;;;;;;;1.59;100.00;100217.34;1773512;81;21180;-82
2021/03/16 03:27:39;;;;;;;14.40;7.12;;;;;;;1.55;100.00;100219.22;1773505;81;21470;-83
2021/03/16 03:39:24;;;;;;;26.85;9.40;;;;;;;1.60;100.00;100225.86;1809177;79;21139;-83
2021/03/16 03:51:00;;;;;;;26.77;14.60;;;;;;;1.47;100.00;100239.24;1772551;81;21595;-83
2021/03/16 04:02:18;;;;;;;39.20;19.50;;;;;;;1.38;100.00;100236.61;1773454;81;21127;-83
2021/03/16 04:18:14;;;;;;;55.43;28.57;;;;;;;1.37;100.00;100232.83;1773718;81;21838;-83
2021/03/16 04:29:29;;;;;;;53.17;31.68;;;;;;;1.28;100.00;100239.63;1773587;81;21160;-86
2021/03/16 04:40:21;;;;;;;67.45;34.13;;;;;;;1.63;100.00;100241.96;1793600;79;21550;-83
2021/03/16 04:43:16;;;;;;;71.15;30.72;;;;;;;1.81;100.00;100253.61;1805102;79;21167;-82
2021/03/16 04:46:03;;;;;;;59.67;31.05;;;;;;;1.80;100.00;100254.51;1804935;79;21163;-85
2021/03/16 04:49:21;;;;;;;61.58;32.70;;;;;;;1.67;100.00;100260.63;1805199;79;21178;-85
2021/03/16 04:52:11;;;;;;;70.20;36.23;;;;;;;1.58;100.00;100261.41;1805163;79;21122;-86
2021/03/16 05:02:28;;;;;;;69.58;33.45;;;;;;;1.51;100.00;100273.30;1830927;77;21202;-86
2021/03/16 05:05:16;;;;;;;68.45;32.35;;;;;;;1.47;100.00;100273.03;1789911;79;21089;-85
2021/03/16 05:08:09;;;;;;;60.33;32.83;;;;;;;1.47;100.00;100273.89;1772672;79;22110;-85
2021/03/16 05:11:30;;;;;;;71.37;35.43;;;;;;;1.47;100.00;100273.89;1771768;81;21107;-86
2021/03/16 05:14:20;;;;;;;71.40;33.40;;;;;;;1.49;100.00;100279.77;1771701;80;21167;-88
2021/03/16 05:20:52;;;;;;;73.10;33.13;;;;;;;1.61;100.00;100284.00;1771935;81;21119;-89
2021/03/16 05:24:06;;;;;;;77.45;31.07;;;;;;;1.87;100.00;100264.45;1772116;80;21586;-88
2021/03/16 05:27:20;;;;;;;71.45;34.95;;;;;;;2.00;100.00;100276.27;1770654;80;21172;-86
2021/03/16 05:30:35;;;;;;;45.98;27.67;;;;;;;2.00;100.00;100286.54;1770687;79;21525;-86
2021/03/16 05:33:23;;;;;;;53.35;29.10;;;;;;;1.95;100.00;100279.97;1770768;81;21077;-86
2021/03/16 05:36:11;;;;;;;47.55;26.50;;;;;;;1.92;100.00;100280.09;1770718;79;21525;-86
2021/03/16 05:39:00;;;;;;;50.28;31.00;;;;;;;1.94;100.00;100276.55;1770769;81;21513;-86
2021/03/16 05:41:47;;;;;;;54.88;32.05;;;;;;;1.95;100.00;100270.98;1770658;81;21097;-86
2021/03/16 05:44:33;;;;;;;44.23;27.60;;;;;;;1.96;100.00;100262.38;1770732;80;21144;-85
2021/03/16 05:47:20;;;;;;;40.48;26.17;;;;;;;1.97;100.00;100267.87;1770716;81;21058;-85
2021/03/16 05:50:08;;;;;;;52.75;29.50;;;;;;;1.98;100.00;100265.25;1770759;81;21497;-86
2021/03/16 05:52:55;;;;;;;49.55;29.15;;;;;;;2.00;100.00;100266.45;1770616;81;22022;-86
2021/03/16 05:55:43;;;;;;;54.50;28.62;;;;;;;1.99;100.00;100260.50;1806077;79;21182;-86
2021/03/16 05:58:31;;;;;;;44.53;26.93;;;;;;;2.03;100.00;100263.30;1785143;79;21139;-86
2021/03/16 06:01:18;;;;;;;51.23;32.13;;;;;;;2.12;100.00;100257.36;1808033;79;21249;-86
2021/03/16 06:04:11;;;;;;;55.20;33.60;;;;;;;2.16;100.00;100277.70;1818614;78;21567;-87
2021/03/16 06:06:58;;;;;;;51.15;27.82;;;;;;;2.19;100.00;100278.87;1827759;78;22101;-86
2021/03/16 06:09:53;;;;;;;51.95;28.42;;;;;;;2.21;100.00;100279.60;1798426;79;21115;-87
2021/03/16 06:12:41;;;;;;;47.95;27.67;;;;;;;2.24;100.00;100288.94;1821542;78;21191;-86
2021/03/16 06:15:58;;;;;;;43.73;29.50;;;;;;;2.27;100.00;100268.22;1798165;79;21143;-86
2021/03/16 06:18:47;;;;;;;46.75;26.75;;;;;;;2.31;100.00;100270.20;1811024;78;21111;-85
2021/03/16 06:21:39;;;;;;;39.92;25.92;;;;;;;2.35;100.00;100261.45;1798247;79;21308;-86
2021/03/16 06:24:39;;;;;;;64.95;28.52;;;;;;;2.39;100.00;100262.97;1798246;79;21568;-86
2021/03/16 06:27:27;;;;;;;56.28;29.05;;;;;;;2.42;100.00;100265.84;1828619;78;21178;-86
2021/03/16 06:30:27;;;;;;;49.75;25.72;;;;;;;2.40;100.00;100267.20;1808187;79;21160;-85
2021/03/16 06:33:21;;;;;;;54.05;27.62;;;;;;;2.42;100.00;100267.13;1812104;78;21148;-86
2021/03/16 06:36:09;;;;;;;45.10;27.05;;;;;;;2.46;100.00;100266.09;1836915;77;21194;-86
2021/03/16 06:38:56;;;;;;;48.08;29.92;;;;;;;2.47;100.00;100258.30;1836863;78;21839;-86
2021/03/16 06:41:46;;;;;;;38.08;24.45;;;;;;;2.50;100.00;100262.02;1826437;78;21135;-86
2021/03/16 06:44:33;;;;;;;46.65;26.17;;;;;;;2.59;100.00;100259.92;1836865;78;21187;-86
2021/03/16 06:47:23;;;;;;;47.08;27.70;;;;;;;2.65;100.00;100262.20;1805323;78;21226;-86
2021/03/16 06:50:37;;;;;;;47.50;27.73;;;;;;;2.71;100.00;100261.89;1784423;77;22142;-86
2021/03/16 06:53:28;;;;;;;43.28;23.90;;;;;;;2.79;100.00;100254.64;1775263;78;21162;-86
2021/03/16 06:56:31;;;;;;;37.83;25.60;;;;;;;2.83;100.00;100246.33;1798266;79;21466;-86
2021/03/16 06:59:24;;;;;;;45.70;28.47;;;;;;;2.86;100.00;100245.34;1775307;80;21120;-85
2021/03/16 07:02:15;;;;;;;45.83;26.00;;;;;;;2.89;100.00;100235.73;1822167;77;21055;-86
2021/03/16 07:05:06;;;;;;;44.83;24.65;;;;;;;2.92;100.00;100236.87;1824798;77;21364;-86
2021/03/16 07:08:00;;;;;;;28.10;19.90;;;;;;;2.93;100.00;100229.55;1823316;77;21412;-86
2021/03/16 07:10:49;;;;;;;38.75;21.42;;;;;;;2.97;100.00;100223.79;1828582;78;21904;-85
2021/03/16 07:13:39;;;;;;;39.58;24.30;;;;;;;3.07;100.00;100228.87;1798414;79;21467;-85
2021/03/16 07:16:26;;;;;;;40.48;21.17;;;;;;;3.27;100.00;100224.44;1807325;79;21595;-85
2021/03/16 07:19:16;;;;;;;32.15;20.45;;;;;;;3.47;100.00;100219.56;1798537;78;22183;-85
2021/03/16 07:22:06;;;;;;;29.32;19.60;;;;;;;3.62;100.00;100210.21;1816692;77;21159;-85
2021/03/16 07:25:00;;;;;;;31.95;23.18;;;;;;;3.73;100.00;100209.17;1819956;77;21631;-85
2021/03/16 07:27:48;;;;;;;35.15;18.27;;;;;;;3.78;100.00;100209.78;1809172;79;21440;-87
2021/03/16 07:35:08;;;;;;;31.12;20.95;;;;;;;3.69;100.00;100204.27;1767414;79;21531;-86
2021/03/16 07:38:28;;;;;;;24.43;18.65;;;;;;;3.69;100.00;100196.09;1785553;79;21164;-85
2021/03/16 07:41:16;;;;;;;33.98;23.65;;;;;;;3.82;100.00;100188.55;1797260;77;21654;-85
2021/03/16 07:44:10;;;;;;;48.78;25.45;;;;;;;4.01;100.00;100184.95;1820122;78;21642;-85
2021/03/16 07:47:01;;;;;;;38.78;25.68;;;;;;;4.15;100.00;100195.36;1817526;78;21757;-85
2021/03/16 07:50:04;;;;;;;31.73;21.97;;;;;;;4.22;100.00;100190.69;1762316;81;21196;-85
2021/03/16 07:52:58;;;;;;;33.45;21.23;;;;;;;3.98;100.00;100182.09;1742618;80;21178;-86
2021/03/16 07:55:46;;;;;;;27.10;20.97;;;;;;;3.98;100.00;100182.09;1731479;81;21151;-85
2021/03/16 07:58:46;;;;;;;35.63;22.35;;;;;;;3.99;100.00;100185.05;1717579;82;21231;-85
2021/03/16 08:01:50;;;;;;;35.25;25.32;;;;;;;3.99;100.00;100185.05;1717456;81;21150;-85
2021/03/16 08:04:41;;;;;;;45.05;30.43;;;;;;;4.20;100.00;100180.94;1731505;81;21368;-85
2021/03/16 08:07:30;;;;;;;43.15;33.33;;;;;;;4.36;100.00;100186.91;1734248;81;21166;-84
2021/03/16 08:10:28;;;;;;;30.50;24.25;;;;;;;4.47;100.00;100178.56;1761938;80;22314;-85
2021/03/16 08:13:18;;;;;;;33.23;24.02;;;;;;;4.65;100.00;100175.39;1730378;80;21171;-85
2021/03/16 08:16:16;;;;;;;55.03;42.75;;;;;;;4.84;100.00;100167.88;1696162;83;21186;-85
2021/03/16 08:19:20;;;;;;;40.08;32.67;;;;;;;5.05;100.00;100174.80;1716554;83;22358;-85
2021/03/16 08:22:10;;;;;;;40.15;29.85;;;;;;;5.19;100.00;100167.09;1720856;80;21142;-86
2021/03/16 08:25:05;;;;;;;43.08;28.80;;;;;;;5.19;100.00;100163.22;1744311;81;21155;-86
2021/03/16 08:27:54;;;;;;;40.00;22.90;;;;;;;5.09;100.00;100170.31;1716448;83;21139;-85
2021/03/16 08:30:40;;;;;;;41.80;28.30;;;;;;;5.03;100.00;100174.08;1745626;81;21115;-86
2021/03/16 08:33:29;;;;;;;46.58;29.72;;;;;;;4.97;100.00;100170.11;1731740;80;21658;-86
2021/03/16 08:36:16;;;;;;;38.95;28.35;;;;;;;4.96;100.00;100172.31;1720677;81;21175;-85
2021/03/16 08:39:04;;;;;;;45.63;27.40;;;;;;;5.02;100.00;100164.20;1722587;81;21570;-86
2021/03/16 08:42:02;;;;;;;48.02;30.70;;;;;;;5.06;100.00;100158.39;1782247;78;21179;-86
2021/03/16 08:44:56;;;;;;;34.13;25.52;;;;;;;5.10;100.00;100150.01;1773161;81;21102;-86
2021/03/16 08:47:44;;;;;;;40.67;28.15;;;;;;;5.26;100.00;100156.39;1773168;80;21236;-86
2021/03/16 08:50:31;;;;;;;46.37;28.52;;;;;;;5.40;100.00;100156.86;1773077;80;21567;-86
2021/03/16 08:53:19;;;;;;;41.88;28.52;;;;;;;5.59;100.00;100148.33;1773404;78;21235;-85
2021/03/16 08:56:06;;;;;;;42.00;30.12;;;;;;;5.76;100.00;100160.22;1773175;81;21159;-86
2021/03/16 08:59:03;;;;;;;50.65;31.87;;;;;;;5.77;100.00;100157.16;1773128;81;21163;-86
2021/03/16 09:01:52;;;;;;;45.17;30.88;;;;;;;5.73;100.00;100145.37;1777542;78;21327;-86
2021/03/16 09:04:40;;;;;;;53.38;33.15;;;;;;;5.59;100.00;100143.64;1821108;78;21540;-86
2021/03/16 09:07:33;;;;;;;46.55;31.48;;;;;;;5.45;100.00;100147.06;1820999;78;21121;-86
2021/03/16 09:10:21;;;;;;;57.30;34.55;;;;;;;5.36;100.00;100148.47;1821244;78;21119;-86
2021/03/16 15:32:04;;;;;;;52.38;32.10;;;;;;;4.60;100.00;99980.13;1770953;80;21447;-87
2021/03/16 15:34:52;;;;;;;50.63;32.67;;;;;;;4.53;100.00;99980.94;1780966;80;21116;-87
2021/03/16 15:37:40;;;;;;;54.25;32.90;;;;;;;4.41;100.00;99977.35;1805164;78;21138;-89
2021/03/16 15:40:56;;;;;;;50.43;31.17;;;;;;;4.41;100.00;99977.35;1814052;78;21363;-87
2021/03/16 15:43:43;;;;;;;43.92;25.72;;;;;;;4.39;100.00;99986.10;1795310;79;21113;-89
2021/03/16 15:47:04;;;;;;;37.53;27.90;;;;;;;4.35;100.00;99993.19;1801677;79;21128;-89
2021/03/16 15:49:52;;;;;;;43.73;27.30;;;;;;;4.34;100.00;99991.52;1809711;79;21428;-88
2021/03/16 15:53:07;;;;;;;37.63;26.80;;;;;;;4.30;100.00;99986.17;1809758;79;21135;-88
2021/03/16 15:59:37;;;;;;;38.90;27.42;;;;;;;4.24;100.00;99991.25;1809606;79;21166;-87
2021/03/16 16:10:29;;;;;;;;;;;;;;;4.17;100.00;99993.78;1806298;78;21131;-87
2021/03/16 16:17:39;;;;;;;32.28;21.25;;;;;;;4.10;100.00;99992.05;1777685;80;21173;-87
2021/03/16 16:20:33;;;;;;;35.03;23.38;;;;;;;4.07;100.00;99994.78;1788022;78;21184;-86
2021/03/16 16:23:19;;;;;;;36.00;22.52;;;;;;;4.04;100.00;99994.14;1828759;78;21162;-87
2021/03/16 16:29:53;;;;;;;29.63;19.52;;;;;;;4.01;100.00;99999.45;1815194;78;22148;-86
2021/03/16 16:32:41;;;;;;;36.05;21.48;;;;;;;4.01;100.00;99993.86;1793410;79;21178;-88
2021/03/16 16:35:32;;;;;;;43.35;22.60;;;;;;;4.02;100.00;99998.10;1744919;81;21601;-87
2021/03/16 16:38:27;;;;;;;37.53;21.60;;;;;;;4.01;100.00;99999.45;1754398;80;21123;-87
2021/03/16 16:41:20;;;;;;;35.88;21.10;;;;;;;3.95;100.00;99996.80;1745415;80;21111;-90
2021/03/16 16:52:53;;;;;;;38.45;22.05;;;;;;;3.88;100.00;99991.16;1798673;79;21155;-89
2021/03/16 17:00:11;;;;;;;38.08;23.75;;;;;;;3.84;100.00;99984.53;1755926;80;21171;-88
2021/03/16 17:15:49;;;;;;;42.58;24.43;;;;;;;3.77;100.00;99985.33;1742231;81;21598;-88
2021/03/16 17:18:45;;;;;;;36.15;22.40;;;;;;;3.75;100.00;99988.45;1771891;80;21175;-89
2021/03/16 17:21:33;;;;;;;31.00;21.00;;;;;;;3.77;100.00;99978.89;1746123;80;21369;-89
2021/03/16 17:24:21;;;;;;;36.05;22.98;;;;;;;3.76;100.00;99970.79;1775297;80;21234;-88
2021/03/16 17:27:08;;;;;;;31.80;19.75;;;;;;;3.77;100.00;99971.16;1786518;79;21143;-87
2021/03/16 17:29:54;;;;;;;52.70;28.67;;;;;;;3.77;100.00;99967.30;1781711;80;21190;-86
2021/03/16 17:32:41;;;;;;;40.40;25.92;;;;;;;3.81;100.00;99973.55;1748777;81;21148;-87
2021/03/16 17:35:28;;;;;;;40.08;24.25;;;;;;;3.81;100.00;99971.82;1742173;82;21161;-87
2021/03/16 17:38:20;;;;;;;41.20;20.50;;;;;;;3.81;100.00;99968.39;1746469;80;21239;-89
2021/03/16 17:41:08;;;;;;;28.77;17.10;;;;;;;3.82;100.00;99954.61;1757143;80;21235;-86
2021/03/16 17:43:58;;;;;;;37.83;18.75;;;;;;;3.82;100.00;99958.03;1746012;81;21580;-88
2021/03/16 17:46:45;;;;;;;28.15;17.45;;;;;;;3.82;100.00;99949.45;1749352;80;21387;-88
2021/03/16 17:49:33;;;;;;;29.05;17.90;;;;;;;3.81;100.00;99938.78;1750339;81;21200;-87
2021/03/16 17:52:21;;;;;;;29.15;16.62;;;;;;;3.81;100.00;99943.93;1742142;81;21144;-87
2021/03/16 17:55:11;;;;;;;32.88;17.17;;;;;;;3.81;100.00;99933.63;1747884;80;21191;-87
2021/03/16 17:57:58;;;;;;;23.67;16.45;;;;;;;3.82;100.00;99936.58;1742144;82;21215;-87
2021/03/16 18:00:51;;;;;;;30.85;17.00;;;;;;;3.84;100.00;99935.59;1745333;80;22062;-87
2021/03/16 18:04:07;;;;;;;26.82;16.17;;;;;;;3.86;100.00;99935.50;1761221;81;21139;-87
2021/03/16 18:06:59;;;;;;;28.77;16.15;;;;;;;3.87;100.00;99932.01;1756540;80;21167;-87
2021/03/16 18:09:48;;;;;;;26.20;16.00;;;;;;;3.89;100.00;99930.15;1748526;80;21153;-87
2021/03/16 18:12:37;;;;;;;22.25;14.85;;;;;;;3.89;100.00;99931.44;1760204;80;21189;-87
2021/03/16 18:15:24;;;;;;;29.57;15.05;;;;;;;3.89;100.00;99925.00;1772211;80;21420;-87
2021/03/16 18:18:12;;;;;;;28.40;15.60;;;;;;;3.89;100.00;99927.13;1772943;80;21359;-87
2021/03/16 18:20:59;;;;;;;27.50;15.35;;;;;;;3.88;100.00;99934.48;1765625;81;21151;-87
2021/03/16 18:23:46;;;;;;;28.12;16.25;;;;;;;3.88;100.00;99925.47;1744492;81;21131;-87
2021/03/16 18:26:35;;;;;;;27.52;14.40;;;;;;;3.89;100.00;99921.13;1761708;80;21180;-87
2021/03/16 18:29:21;;;;;;;29.82;16.97;;;;;;;3.88;100.00;99920.80;1745505;81;21608;-87
2021/03/16 18:32:08;;;;;;;28.52;16.10;;;;;;;3.88;100.00;99909.20;1741667;80;22268;-87
2021/03/16 18:34:58;;;;;;;27.90;16.23;;;;;;;3.88;100.00;99916.93;1751102;81;21144;-87
2021/03/16 18:37:45;;;;;;;29.50;14.58;;;;;;;3.87;100.00;99921.23;1734519;81;21552;-87
2021/03/16 18:40:39;;;;;;;21.27;14.63;;;;;;;3.84;100.00;99914.14;1772900;78;21098;-87
2021/03/16 18:43:25;;;;;;;28.77;17.17;;;;;;;3.84;100.00;99914.14;1785590;79;21202;-87
2021/03/16 18:46:17;;;;;;;29.65;15.65;;;;;;;3.83;100.00;99906.89;1761885;81;21275;-87
2021/03/16 18:49:07;;;;;;;31.42;14.47;;;;;;;3.79;100.00;99899.80;1761828;80;21218;-87
2021/03/16 18:51:54;;;;;;;32.67;15.25;;;;;;;3.78;100.00;99903.30;1775560;79;21167;-87
2021/03/16 18:54:42;;;;;;;28.40;14.87;;;;;;;3.78;100.00;99902.00;1785353;80;21127;-87
2021/03/16 18:57:28;;;;;;;26.48;15.85;;;;;;;3.78;100.00;99901.16;1785376;80;21206;-87
2021/03/16 19:00:18;;;;;;;22.50;13.85;;;;;;;3.77;100.00;99893.91;1785434;80;21604;-87
2021/03/16 19:03:07;;;;;;;25.35;13.50;;;;;;;3.75;100.00;99888.01;1785337;79;21172;-87
2021/03/16 19:05:54;;;;;;;31.23;15.70;;;;;;;3.73;100.00;99882.11;1781888;79;21115;-86
2021/03/16 19:09:16;;;;;;;25.15;13.88;;;;;;;3.71;100.00;99883.97;1762028;81;21179;-87
2021/03/16 19:12:06;;;;;;;22.65;13.15;;;;;;;3.71;100.00;99880.11;1774450;80;21158;-87
2021/03/16 19:15:21;;;;;;;27.15;15.23;;;;;;;3.67;100.00;99885.52;1781253;80;21373;-87
2021/03/16 19:18:09;;;;;;;26.60;14.40;;;;;;;3.67;100.00;99885.52;1746738;79;21162;-87
2021/03/16 19:20:57;;;;;;;26.48;14.60;;;;;;;3.64;100.00;99882.67;1771465;79;21177;-87
2021/03/16 19:23:47;;;;;;;20.32;12.58;;;;;;;3.62;100.00;99889.17;1775375;80;21173;-87
2021/03/16 19:26:36;;;;;;;27.32;14.33;;;;;;;3.62;100.00;99892.22;1772474;80;21141;-87
2021/03/16 19:29:54;;;;;;;25.32;13.95;;;;;;;3.59;100.00;99889.81;1752719;81;21203;-87
2021/03/16 19:32:41;;;;;;;19.55;13.15;;;;;;;3.54;100.00;99890.07;1751876;81;21186;-87
2021/03/16 19:35:29;;;;;;;22.35;13.68;;;;;;;3.48;100.00;99891.24;1742701;80;21150;-87
2021/03/16 19:38:15;;;;;;;25.57;13.48;;;;;;;3.43;100.00;99882.16;1742179;82;21193;-87
2021/03/16 19:41:05;;;;;;;27.70;14.53;;;;;;;3.37;100.00;99879.47;1742319;80;21157;-87
2021/03/16 19:43:51;;;;;;;23.47;14.35;;;;;;;3.32;100.00;99877.63;1742336;82;21198;-88
2021/03/16 19:50:26;;;;;;;24.32;14.47;;;;;;;3.23;100.00;99871.70;1744771;81;22275;-87
2021/03/16 19:53:15;;;;;;;25.55;15.05;;;;;;;3.14;100.00;99866.16;1756858;80;21571;-87
2021/03/16 19:56:02;;;;;;;30.05;15.60;;;;;;;3.08;100.00;99867.80;1742495;81;21164;-87
2021/03/16 19:58:49;;;;;;;25.77;15.65;;;;;;;3.03;100.00;99865.09;1742523;81;21213;-87
2021/03/16 20:01:39;;;;;;;27.73;15.30;;;;;;;2.95;100.00;99863.78;1751373;80;21179;-87
2021/03/16 20:04:27;;;;;;;23.80;14.18;;;;;;;2.91;100.00;99862.75;1781021;79;21139;-87
2021/03/16 20:07:46;;;;;;;23.92;14.93;;;;;;;2.88;100.00;99868.05;1779400;78;21541;-87
2021/03/16 20:10:34;;;;;;;29.70;16.67;;;;;;;2.84;100.00;99869.49;1777119;79;21155;-87
2021/03/16 20:13:21;;;;;;;27.30;15.10;;;;;;;2.80;100.00;99865.91;1779691;79;21792;-86
2021/03/16 20:16:09;;;;;;;29.70;16.23;;;;;;;2.77;100.00;99865.59;1777398;79;21140;-87
2021/03/16 20:18:56;;;;;;;33.45;16.02;;;;;;;2.76;100.00;99866.55;1795490;79;21628;-87
2021/03/16 20:21:43;;;;;;;26.50;16.02;;;;;;;2.74;100.00;99863.66;1747268;82;21122;-87
2021/03/16 20:25:05;;;;;;;27.20;15.58;;;;;;;2.72;100.00;99856.03;1747357;81;21185;-87
2021/03/16 20:28:19;;;;;;;27.20;14.93;;;;;;;2.71;100.00;99849.70;1747487;82;21240;-87
2021/03/16 20:31:07;;;;;;;25.37;14.63;;;;;;;2.70;100.00;99833.90;1750093;80;21206;-87
2021/03/16 20:33:56;;;;;;;30.40;15.35;;;;;;;2.67;100.00;99843.90;1767190;80;21095;-87
2021/03/16 20:36:42;;;;;;;27.77;15.32;;;;;;;2.65;100.00;99853.43;1780759;80;21240;-87
2021/03/16 20:39:28;;;;;;;32.40;16.35;;;;;;;2.64;100.00;99856.91;1752546;80;21128;-87
2021/03/16 20:42:22;;;;;;;29.10;15.83;;;;;;;2.61;100.00;99856.63;1721513;81;22109;-87
2021/03/16 20:45:14;;;;;;;28.87;16.20;;;;;;;2.60;100.00;99860.57;1727824;81;21229;-87
2021/03/16 20:48:05;;;;;;;30.92;16.02;;;;;;;2.58;100.00;99850.82;1739682;81;21190;-87
2021/03/16 20:50:55;;;;;;;25.35;14.95;;;;;;;2.57;100.00;99853.02;1716593;83;21193;-87
2021/03/16 20:53:42;;;;;;;30.90;16.10;;;;;;;2.55;100.00;99847.97;1728012;81;21590;-87
2021/03/16 20:56:29;;;;;;;30.85;16.75;;;;;;;2.54;100.00;99847.59;1764440;81;21378;-87
2021/03/16 20:59:45;;;;;;;33.18;17.50;;;;;;;2.52;100.00;99848.12;1727116;81;21218;-87
2021/03/16 21:03:00;;;;;;;37.50;16.90;;;;;;;2.50;100.00;99848.20;1733000;82;21194;-87
2021/03/16 21:05:47;;;;;;;30.45;17.27;;;;;;;2.48;100.00;99847.45;1746482;82;21532;-87
2021/03/16 21:08:34;;;;;;;35.03;17.00;;;;;;;2.47;100.00;99844.51;1746403;82;21148;-87
2021/03/16 21:11:22;;;;;;;35.38;17.23;;;;;;;2.46;100.00;99844.12;1746420;82;21205;-87
2021/03/16 21:14:11;;;;;;;37.17;17.32;;;;;;;2.45;100.00;99848.08;1746406;82;21156;-87
2021/03/16 21:16:59;;;;;;;31.40;17.30;;;;;;;2.46;100.00;99847.17;1745818;81;21233;-87
2021/03/16 21:19:49;;;;;;;34.48;18.77;;;;;;;2.47;100.00;99841.94;1714592;83;21135;-87
2021/03/16 21:22:37;;;;;;;30.00;17.40;;;;;;;2.49;100.00;99836.27;1720093;83;21147;-87
2021/03/16 21:25:23;;;;;;;27.48;17.37;;;;;;;2.52;100.00;99828.84;1719969;83;21206;-87
2021/03/16 21:28:11;;;;;;;32.00;17.62;;;;;;;2.53;100.00;99825.36;1720051;83;21215;-87
2021/03/16 21:30:57;;;;;;;35.15;18.12;;;;;;;2.53;100.00;99823.61;1719988;83;21143;-87
2021/03/16 21:33:44;;;;;;;37.53;19.55;;;;;;;2.53;100.00;99827.94;1729665;80;21242;-88
2021/03/16 21:36:30;;;;;;;34.73;18.10;;;;;;;2.52;100.00;99824.98;1759560;80;21080;-86
2021/03/16 21:39:17;;;;;;;30.95;17.00;;;;;;;2.53;100.00;99829.22;1749116;82;21378;-86
2021/03/16 21:42:05;;;;;;;33.75;19.27;;;;;;;2.53;100.00;99824.08;1748314;81;21159;-87
2021/03/16 21:44:54;;;;;;;30.23;17.95;;;;;;;2.54;100.00;99823.17;1749276;81;21168;-87
2021/03/16 21:47:40;;;;;;;36.30;17.80;;;;;;;2.55;100.00;99822.70;1732210;81;21127;-86
2021/03/16 21:50:27;;;;;;;31.50;18.87;;;;;;;2.57;100.00;99820.88;1693331;83;21175;-86
2021/03/16 21:53:17;;;;;;;36.08;19.42;;;;;;;2.56;100.00;99817.50;1720111;83;21205;-87
2021/03/16 21:56:09;;;;;;;34.58;20.65;;;;;;;2.57;100.00;99814.45;1720177;83;21151;-87
2021/03/16 21:58:57;;;;;;;34.80;20.32;;;;;;;2.59;100.00;99816.50;1720186;83;21602;-87
2021/03/16 22:01:43;;;;;;;36.60;19.75;;;;;;;2.59;100.00;99813.92;1732620;82;21147;-87
2021/03/16 22:04:32;;;;;;;38.40;20.23;;;;;;;2.59;100.00;99816.02;1709035;84;21156;-87
2021/03/16 22:07:46;;;;;;;46.83;20.97;;;;;;;2.60;100.00;99818.16;1680653;85;22150;-87
2021/03/16 22:10:39;;;;;;;36.35;20.43;;;;;;;2.61;100.00;99818.50;1680495;85;21157;-87
2021/03/16 22:13:27;;;;;;;42.73;21.12;;;;;;;2.60;100.00;99817.69;1684484;84;21564;-87
2021/03/16 22:16:16;;;;;;;34.55;20.30;;;;;;;2.60;100.00;99810.45;1686527;85;21283;-87
2021/03/16 22:19:11;;;;;;;39.30;20.52;;;;;;;2.61;100.00;99815.93;1686658;85;21200;-87
2021/03/16 22:26:07;;;;;;;40.65;21.68;;;;;;;2.64;100.00;99811.92;1686450;85;21212;-89
2021/03/16 22:28:53;;;;;;;42.80;21.50;;;;;;;2.63;100.00;99807.25;1686526;83;21164;-86
2021/03/16 22:31:40;;;;;;;41.50;21.12;;;;;;;2.63;100.00;99803.39;1702523;83;21556;-87
2021/03/16 22:34:52;;;;;;;38.63;21.65;;;;;;;2.64;100.00;99799.06;1734056;80;21175;-87
2021/03/16 22:37:38;;;;;;;42.48;22.42;;;;;;;2.64;100.00;99789.63;1773339;80;21265;-87
2021/03/16 22:40:24;;;;;;;41.40;22.32;;;;;;;2.66;100.00;99804.48;1773077;80;21424;-87
2021/03/16 22:43:12;;;;;;;37.58;21.73;;;;;;;2.66;100.00;99808.81;1773126;80;21187;-87
2021/03/16 22:45:59;;;;;;;42.78;22.15;;;;;;;2.66;100.00;99806.25;1773033;81;21123;-87
2021/03/16 22:48:47;;;;;;;38.80;21.45;;;;;;;2.67;100.00;99814.33;1773254;80;21171;-87
2021/03/16 22:51:33;;;;;;;42.53;22.35;;;;;;;2.66;100.00;99810.10;1773118;80;21567;-87
2021/03/16 22:54:20;;;;;;;40.63;22.22;;;;;;;2.65;100.00;99807.97;1773032;80;21206;-87
2021/03/16 22:57:13;;;;;;;41.88;22.55;;;;;;;2.66;100.00;99809.63;1773069;81;21151;-87
2021/03/16 23:00:32;;;;;;;41.92;22.80;;;;;;;2.66;100.00;99804.48;1773099;80;21143;-87
2021/03/16 23:03:18;;;;;;;40.75;23.45;;;;;;;2.66;100.00;99807.53;1773046;80;21543;-87
2021/03/16 23:06:04;;;;;;;42.65;22.60;;;;;;;2.66;100.00;99805.77;1773080;80;22171;-87
2021/03/16 23:08:54;;;;;;;40.55;23.10;;;;;;;2.68;100.00;99809.57;1773018;81;21144;-87
2021/03/16 23:11:44;;;;;;;38.98;23.07;;;;;;;2.68;100.00;99806.53;1773115;81;21136;-87
2021/03/16 23:15:01;;;;;;;50.33;24.35;;;;;;;2.67;100.00;99797.16;1773223;81;21053;-87
2021/03/16 23:17:49;;;;;;;42.48;23.15;;;;;;;2.69;100.00;99799.62;1773031;81;21191;-87
2021/03/16 23:25:20;;;;;;;48.00;23.47;;;;;;;2.71;100.00;99799.09;1773131;81;21111;-87
2021/03/16 23:28:08;;;;;;;47.00;23.77;;;;;;;2.69;100.00;99795.77;1773160;80;21147;-88
2021/03/16 23:31:00;;;;;;;51.98;25.02;;;;;;;2.66;100.00;99794.20;1773332;80;21123;-88
2021/03/16 23:33:47;;;;;;;50.45;25.90;;;;;;;2.65;100.00;99795.59;1773449;80;21143;-88
2021/03/16 23:40:57;;;;;;;36.35;22.17;;;;;;;2.63;100.00;99792.27;1773235;81;21163;-89
2021/03/16 23:44:08;;;;;;;41.37;24.87;;;;;;;2.60;100.00;99794.55;1773772;80;21430;-87
2021/03/16 23:46:55;;;;;;;53.15;25.52;;;;;;;2.59;100.00;99793.36;1773359;80;21133;-87
2021/03/16 23:49:41;;;;;;;45.65;24.07;;;;;;;2.56;100.00;99793.52;1773343;80;21186;-88
2021/03/16 23:52:58;;;;;;;50.92;22.82;;;;;;;2.55;100.00;99797.00;1773373;80;21266;-88
2021/03/16 23:55:47;;;;;;;46.77;24.40;;;;;;;2.53;100.00;99794.05;1773387;81;21188;-88
